createdAt,value
2022-08-20T00:02:28.509Z,100044.83
2022-08-20T00:05:01.668Z,100037.30
2022-08-20T00:07:34.487Z,100042.69
2022-08-20T00:10:08.834Z,100031.23
2022-08-20T00:12:47.217Z,100038.63
2022-08-20T00:15:22.471Z,100027.41
2022-08-20T00:17:55.803Z,100037.39
2022-08-20T00:20:31.290Z,100032.98
2022-08-20T00:23:09.812Z,100037.48
2022-08-20T00:25:46.464Z,100038.04
2022-08-20T00:28:20.292Z,100031.33
2022-08-20T00:30:55.590Z,100028.23
2022-08-20T00:33:29.357Z,100034.38
2022-08-20T00:36:08.287Z,100026.80
2022-08-20T00:38:44.265Z,100019.44
2022-08-20T00:41:24.530Z,100018.55
2022-08-20T00:44:17.293Z,100005.54
2022-08-20T00:46:51.074Z,99989.65
2022-08-20T00:49:34.932Z,99998.39
2022-08-20T00:52:19.907Z,100000.83
2022-08-20T00:55:02.648Z,100000.59
2022-08-20T00:57:59.064Z,100002.09
2022-08-20T01:00:46.864Z,99998.20
2022-08-20T01:03:21.835Z,99995.07
2022-08-20T01:05:55.638Z,100000.63
2022-08-20T01:08:29.518Z,100002.05
2022-08-20T01:11:23.137Z,99999.88
2022-08-20T01:13:58.176Z,99988.64
2022-08-20T01:16:34.724Z,99993.04
2022-08-20T01:19:30.006Z,99992.45
2022-08-20T01:22:28.310Z,99992.35
2022-08-20T01:25:10.111Z,99984.80
2022-08-20T01:27:44.036Z,99980.92
2022-08-20T01:30:19.558Z,99982.48
2022-08-20T01:32:53.057Z,99975.55
2022-08-20T01:35:27.593Z,99972.80
2022-08-20T01:38:00.633Z,99970.08
2022-08-20T01:40:45.528Z,99978.86
2022-08-20T01:43:19.640Z,99979.70
2022-08-20T01:45:56.254Z,99981.40
2022-08-20T01:48:30.425Z,99979.96
2022-08-20T01:51:10.796Z,99985.43
2022-08-20T01:53:55.480Z,99983.39
2022-08-20T01:56:34.578Z,99984.58
2022-08-20T01:59:08.678Z,99985.08
2022-08-20T02:01:46.512Z,99976.94
2022-08-20T02:04:22.533Z,99989.01
2022-08-20T02:07:02.596Z,99990.21
2022-08-20T02:09:39.694Z,99983.88
2022-08-20T02:12:14.800Z,99985.67
2022-08-20T02:14:51.819Z,99991.84
2022-08-20T02:17:26.728Z,99984.02
2022-08-20T02:20:11.139Z,99986.02
2022-08-20T02:22:59.558Z,99976.52
2022-08-20T02:25:36.365Z,99973.60
2022-08-20T02:28:14.462Z,99974.43
2022-08-20T02:30:51.928Z,99980.45
2022-08-20T02:33:26.121Z,99982.02
2022-08-20T02:36:02.434Z,99983.91
2022-08-20T02:38:39.520Z,99978.23
2022-08-20T02:41:13.827Z,99984.55
2022-08-20T02:43:47.034Z,99985.69
2022-08-20T02:46:20.624Z,99987.29
2022-08-20T02:48:54.119Z,99990.73
2022-08-20T02:51:30.437Z,99996.59
2022-08-20T02:54:04.461Z,99996.45
2022-08-20T02:56:37.841Z,99996.85
2022-08-20T02:59:11.317Z,99998.77
2022-08-20T03:01:59.206Z,99999.15
2022-08-20T03:04:35.843Z,99989.39
2022-08-20T03:07:10.657Z,99999.39
2022-08-20T03:09:44.513Z,99998.17
2022-08-20T03:12:17.623Z,100001.27
2022-08-20T03:14:50.787Z,99992.61
2022-08-20T03:17:26.082Z,100000.92
2022-08-20T03:19:59.393Z,100001.42
2022-08-20T03:22:32.892Z,99999.61
2022-08-20T03:25:08.117Z,99996.94
2022-08-20T03:27:41.934Z,99995.16
2022-08-20T03:30:16.746Z,99994.64
2022-08-20T03:32:50.497Z,99999.21
2022-08-20T03:35:25.711Z,99999.21
2022-08-20T03:37:59.660Z,99997.60
2022-08-20T03:40:35.019Z,99994.39
2022-08-20T03:43:12.606Z,99991.96
2022-08-20T03:45:48.073Z,99995.84
2022-08-20T03:48:22.862Z,99995.92
2022-08-20T03:50:56.276Z,100001.66
2022-08-20T03:53:32.023Z,100004.58
2022-08-20T03:56:08.628Z,100009.28
2022-08-20T03:58:42.267Z,99998.45
2022-08-20T04:01:44.335Z,100005.32
2022-08-20T04:04:12.422Z,100005.66
2022-08-20T04:06:48.108Z,99993.85
2022-08-20T04:09:21.521Z,100000.14
2022-08-20T04:11:59.293Z,100008.64
2022-08-20T04:14:32.937Z,100017.19
2022-08-20T04:17:12.242Z,100021.48
2022-08-20T04:19:46.650Z,100020.65
2022-08-20T04:22:20.394Z,100030.02
2022-08-20T04:24:54.513Z,100033.33
2022-08-20T04:27:27.951Z,100032.39
2022-08-20T04:30:04.532Z,100041.61
2022-08-20T04:32:37.755Z,100047.61
2022-08-20T04:35:12.624Z,100051.73
2022-08-20T04:37:47.060Z,100051.22
2022-08-20T04:40:40.331Z,100055.70
2022-08-20T04:43:13.914Z,100059.06
2022-08-20T04:45:48.801Z,100061.64
2022-08-20T04:48:25.569Z,100066.60
2022-08-20T04:50:59.478Z,100065.51
2022-08-20T04:53:34.358Z,100067.02
2022-08-20T04:56:07.874Z,100066.08
2022-08-20T04:58:42.712Z,100063.10
2022-08-20T05:01:16.234Z,100064.86
2022-08-20T05:03:50.050Z,100064.22
2022-08-20T05:06:25.431Z,100060.71
2022-08-20T05:08:59.814Z,100062.06
2022-08-20T05:11:36.779Z,100059.23
2022-08-20T05:14:11.643Z,100059.54
2022-08-20T05:16:44.858Z,100057.52
2022-08-20T05:19:18.121Z,100056.23
2022-08-20T05:21:54.161Z,100048.88
2022-08-20T05:24:27.690Z,100049.48
2022-08-20T05:27:02.831Z,100046.30
2022-08-20T05:29:35.991Z,100052.02
2022-08-20T05:32:12.836Z,100051.84
2022-08-20T05:34:46.535Z,100053.88
2022-08-20T05:37:19.930Z,100048.89
2022-08-20T05:39:53.664Z,100046.02
2022-08-20T05:42:30.005Z,100036.56
2022-08-20T05:45:03.627Z,100048.04
2022-08-20T05:47:46.544Z,100054.59
2022-08-20T05:50:23.679Z,100036.33
2022-08-20T05:52:57.434Z,100053.65
2022-08-20T05:55:31.231Z,100044.77
2022-08-20T05:58:07.227Z,100048.06
2022-08-20T06:00:40.460Z,100044.52
2022-08-20T06:03:32.418Z,100045.84
2022-08-20T06:06:17.918Z,100045.92
2022-08-20T06:09:04.071Z,100043.60
2022-08-20T06:11:37.784Z,100040.81
2022-08-20T06:14:11.367Z,100033.86
2022-08-20T06:16:57.459Z,100035.05
2022-08-20T06:19:34.759Z,100035.84
2022-08-20T06:22:19.485Z,100034.04
2022-08-20T06:24:59.674Z,100031.44
2022-08-20T06:27:35.042Z,100026.06
2022-08-20T06:30:09.670Z,100029.09
2022-08-20T06:32:43.177Z,100033.45
2022-08-20T06:35:19.884Z,100021.41
2022-08-20T06:37:54.938Z,100020.40
2022-08-20T06:40:30.645Z,100024.11
2022-08-20T06:43:04.201Z,100022.34
2022-08-20T06:45:39.532Z,100025.14
2022-08-20T06:48:17.640Z,100023.98
2022-08-20T06:50:51.318Z,100018.46
2022-08-20T06:53:25.749Z,100019.28
2022-08-20T06:56:00.092Z,100020.13
2022-08-20T06:58:37.001Z,100022.90
2022-08-20T07:01:15.507Z,100021.49
2022-08-20T07:03:54.791Z,100019.29
2022-08-20T07:06:30.226Z,100014.03
2022-08-20T07:09:03.478Z,100011.77
2022-08-20T07:11:36.551Z,100011.20
2022-08-20T07:14:09.766Z,100020.11
2022-08-20T07:16:42.762Z,100022.85
2022-08-20T07:19:16.744Z,100016.05
2022-08-20T07:21:51.071Z,100016.15
2022-08-20T07:24:24.473Z,100010.77
2022-08-20T07:27:07.601Z,100008.77
2022-08-20T07:29:59.894Z,100008.55
2022-08-20T07:32:39.566Z,100008.72
2022-08-20T07:35:15.268Z,100009.31
2022-08-20T07:37:50.640Z,100013.66
2022-08-20T07:40:29.790Z,100010.16
2022-08-20T07:43:04.143Z,100006.41
2022-08-20T07:45:39.415Z,100005.55
2022-08-20T07:48:14.904Z,99998.53
2022-08-20T07:51:08.652Z,100002.05
2022-08-20T07:53:42.733Z,100009.73
2022-08-20T07:56:22.032Z,100007.86
2022-08-20T07:58:59.579Z,100005.52
2022-08-20T08:01:34.038Z,100002.13
2022-08-20T08:04:07.219Z,99993.45
2022-08-20T08:06:41.046Z,99993.92
2022-08-20T08:09:17.795Z,100000.23
2022-08-20T08:11:52.998Z,100005.63
2022-08-20T08:14:32.354Z,99995.55
2022-08-20T08:17:07.685Z,99994.72
2022-08-20T08:19:51.636Z,99995.21
2022-08-20T08:22:25.633Z,99992.77
2022-08-20T08:25:02.965Z,99983.46
2022-08-20T08:27:36.574Z,99984.08
2022-08-20T08:30:10.609Z,99981.10
2022-08-20T08:33:04.628Z,99971.23
2022-08-20T08:35:41.450Z,99982.08
2022-08-20T08:38:17.520Z,99969.63
2022-08-20T08:40:52.019Z,99971.54
2022-08-20T08:43:35.046Z,99970.99
2022-08-20T08:46:11.841Z,99962.85
2022-08-20T08:48:48.651Z,99964.13
2022-08-20T08:51:35.635Z,99968.96
2022-08-20T08:54:09.431Z,99961.71
2022-08-20T08:56:43.799Z,99962.15
2022-08-20T08:59:25.726Z,99959.83
2022-08-20T09:02:26.484Z,99956.73
2022-08-20T09:05:02.922Z,99953.95
2022-08-20T09:07:37.821Z,99946.80
2022-08-20T09:10:11.772Z,99954.55
2022-08-20T09:12:47.870Z,99953.22
2022-08-20T09:15:21.892Z,99947.08
2022-08-20T09:17:55.639Z,99936.71
2022-08-20T09:20:31.466Z,99937.45
2022-08-20T09:23:07.567Z,99935.96
2022-08-20T09:25:41.223Z,99936.04
2022-08-20T09:28:14.524Z,99944.64
2022-08-20T09:30:48.171Z,99939.52
2022-08-20T09:33:22.235Z,99938.25
2022-08-20T09:35:55.694Z,99938.39
2022-08-20T09:38:28.950Z,99942.06
2022-08-20T09:41:02.562Z,99940.50
2022-08-20T09:43:35.577Z,99930.69
2022-08-20T09:46:08.979Z,99933.73
2022-08-20T09:48:42.398Z,99928.73
2022-08-20T09:51:15.630Z,99926.52
2022-08-20T09:53:49.558Z,99928.73
2022-08-20T09:56:23.120Z,99923.04
2022-08-20T09:59:01.073Z,99919.09
2022-08-20T10:01:36.084Z,99916.63
2022-08-20T10:04:09.226Z,99922.67
2022-08-20T10:06:46.155Z,99923.59
2022-08-20T10:09:20.142Z,99909.02
2022-08-20T10:11:53.159Z,99910.77
2022-08-20T10:14:26.578Z,99911.91
2022-08-20T10:17:04.037Z,99903.58
2022-08-20T10:19:36.699Z,99894.17
2022-08-20T10:22:10.338Z,99896.02
2022-08-20T10:24:43.390Z,99905.10
2022-08-20T10:27:16.238Z,99904.66
2022-08-20T10:29:49.602Z,99896.90
2022-08-20T10:32:23.882Z,99902.49
2022-08-20T10:34:56.809Z,99899.21
2022-08-20T10:37:30.924Z,99893.36
2022-08-20T10:40:04.795Z,99884.21
2022-08-20T10:42:42.406Z,99884.02
2022-08-20T10:45:17.842Z,99878.98
2022-08-20T10:47:52.327Z,99885.73
2022-08-20T10:50:26.111Z,99890.59
2022-08-20T10:53:03.997Z,99886.21
2022-08-20T10:55:37.286Z,99873.91
2022-08-20T10:58:11.457Z,99878.27
2022-08-20T11:00:46.040Z,99875.86
2022-08-20T11:03:19.480Z,99873.95
2022-08-20T11:05:52.256Z,99870.41
2022-08-20T11:08:34.460Z,99863.92
2022-08-20T11:11:11.680Z,99858.36
2022-08-20T11:13:44.451Z,99861.68
2022-08-20T11:16:17.555Z,99856.73
2022-08-20T11:18:50.656Z,99845.95
2022-08-20T11:21:23.372Z,99851.66
2022-08-20T11:24:01.016Z,99849.27
2022-08-20T11:26:37.000Z,99847.63
2022-08-20T11:29:09.575Z,99847.55
2022-08-20T11:31:42.404Z,99843.96
2022-08-20T11:34:15.380Z,99843.45
2022-08-20T11:36:49.842Z,99846.05
2022-08-20T11:39:23.232Z,99853.23
2022-08-20T11:41:56.440Z,99859.30
2022-08-20T11:44:29.499Z,99856.44
2022-08-20T11:47:06.275Z,99854.90
2022-08-20T11:49:40.218Z,99847.08
2022-08-20T11:52:13.377Z,99850.48
2022-08-20T11:54:46.271Z,99851.26
2022-08-20T11:57:28.602Z,99845.99
2022-08-20T12:00:04.018Z,99847.15
2022-08-20T12:02:41.802Z,99846.61
2022-08-20T12:05:15.530Z,99841.95
2022-08-20T12:07:48.686Z,99843.36
2022-08-20T12:10:23.672Z,99843.02
2022-08-20T12:12:58.611Z,99840.41
2022-08-20T12:15:32.027Z,99830.31
2022-08-20T12:18:08.326Z,99841.04
2022-08-20T12:20:41.432Z,99835.79
2022-08-20T12:23:14.644Z,99831.05
2022-08-20T12:25:48.237Z,99831.64
2022-08-20T12:28:25.763Z,99823.33
2022-08-20T12:31:01.254Z,99820.02
2022-08-20T12:33:34.744Z,99825.43
2022-08-20T12:36:08.611Z,99828.50
2022-08-20T12:38:42.253Z,99826.14
2022-08-20T12:41:15.368Z,99824.67
2022-08-20T12:43:49.345Z,99821.48
2022-08-20T12:46:22.672Z,99821.56
2022-08-20T12:48:56.441Z,99823.48
2022-08-20T12:51:30.395Z,99829.29
2022-08-20T12:54:03.889Z,99831.48
2022-08-20T12:56:37.087Z,99823.73
2022-08-20T12:59:10.522Z,99817.40
2022-08-20T13:01:43.902Z,99816.65
2022-08-20T13:04:21.468Z,99813.15
2022-08-20T13:06:54.878Z,99813.20
2022-08-20T13:09:28.644Z,99791.91
2022-08-20T13:12:01.527Z,99805.45
2022-08-20T13:14:39.089Z,99806.83
2022-08-20T13:17:12.751Z,99806.50
2022-08-20T13:19:46.260Z,99812.91
2022-08-20T13:22:19.227Z,99799.34
2022-08-20T13:24:53.078Z,99804.98
2022-08-20T13:27:26.209Z,99803.59
2022-08-20T13:29:59.653Z,99801.23
2022-08-20T13:32:32.850Z,99793.37
2022-08-20T13:35:06.668Z,99790.21
2022-08-20T13:37:40.780Z,99790.91
2022-08-20T13:40:14.563Z,99788.38
2022-08-20T13:42:47.417Z,99776.15
2022-08-20T13:45:20.352Z,99778.50
2022-08-20T13:47:57.137Z,99784.30
2022-08-20T13:50:30.098Z,99784.45
2022-08-20T13:53:04.253Z,99774.80
2022-08-20T13:55:40.870Z,99777.94
2022-08-20T13:58:13.748Z,99772.55
2022-08-20T14:00:47.676Z,99776.73
2022-08-20T14:03:25.839Z,99776.20
2022-08-20T14:06:04.722Z,99773.49
2022-08-20T14:08:38.136Z,99770.80
2022-08-20T14:11:14.004Z,99774.91
2022-08-20T14:13:52.262Z,99773.42
2022-08-20T14:16:27.662Z,99771.20
2022-08-20T14:19:01.871Z,99766.27
2022-08-20T14:21:34.834Z,99762.95
2022-08-20T14:24:07.976Z,99770.30
2022-08-20T14:26:41.413Z,99763.53
2022-08-20T14:29:14.348Z,99765.27
2022-08-20T14:31:47.104Z,99765.64
2022-08-20T14:34:20.497Z,99757.06
2022-08-20T14:36:54.161Z,99753.23
2022-08-20T14:39:28.242Z,99755.36
2022-08-20T14:42:01.451Z,99757.70
2022-08-20T14:44:35.523Z,99761.09
2022-08-20T14:47:28.303Z,99755.77
2022-08-20T14:50:06.104Z,99752.59
2022-08-20T14:52:39.205Z,99747.32
2022-08-20T14:55:15.321Z,99752.96
2022-08-20T14:57:49.327Z,99755.83
2022-08-20T15:00:26.331Z,99755.23
2022-08-20T15:02:59.971Z,99755.92
2022-08-20T15:05:34.165Z,99758.16
2022-08-20T15:08:14.142Z,99758.70
2022-08-20T15:10:47.190Z,99762.91
2022-08-20T15:13:20.734Z,99767.39
2022-08-20T15:15:54.199Z,99761.52
2022-08-20T15:18:29.201Z,99763.89
2022-08-20T15:21:02.452Z,99767.84
2022-08-20T15:23:35.525Z,99769.85
2022-08-20T15:26:09.384Z,99766.36
2022-08-20T15:28:42.368Z,99771.77
2022-08-20T15:31:16.663Z,99768.84
2022-08-20T15:33:49.666Z,99767.20
2022-08-20T15:36:23.880Z,99767.50
2022-08-20T15:38:57.662Z,99766.08
2022-08-20T15:41:30.893Z,99759.66
2022-08-20T15:44:09.345Z,99756.64
2022-08-20T15:46:42.777Z,99759.23
2022-08-20T15:49:15.944Z,99760.17
2022-08-20T15:51:53.064Z,99758.35
2022-08-20T15:54:28.735Z,99779.63
2022-08-20T15:57:35.010Z,99781.29
2022-08-20T16:00:25.943Z,99785.02
2022-08-20T16:03:23.273Z,99782.77
2022-08-20T16:06:13.670Z,99790.52
2022-08-20T16:08:46.764Z,99794.08
2022-08-20T16:11:54.892Z,99796.08
2022-08-20T16:14:31.836Z,99797.73
2022-08-20T16:17:08.767Z,99800.20
2022-08-20T16:20:13.452Z,99796.85
2022-08-20T16:22:48.181Z,99797.97
2022-08-20T16:25:23.847Z,99804.78
2022-08-20T16:28:19.344Z,99792.11
2022-08-20T16:31:05.065Z,99799.48
2022-08-20T16:34:03.834Z,99792.92
2022-08-20T16:37:07.738Z,99808.14
2022-08-20T16:40:01.925Z,99811.05
2022-08-20T16:42:42.717Z,99811.84
2022-08-20T16:45:26.069Z,99811.21
2022-08-20T16:48:07.642Z,99803.14
2022-08-20T16:50:47.916Z,99816.50
2022-08-20T16:53:24.398Z,99815.89
2022-08-20T16:55:58.139Z,99821.02
2022-08-20T16:58:31.422Z,99819.52
2022-08-20T17:01:16.650Z,99818.67
2022-08-20T17:03:53.507Z,99821.39
2022-08-20T17:06:46.433Z,99827.05
2022-08-20T17:09:45.917Z,99821.78
2022-08-20T17:12:25.406Z,99823.77
2022-08-20T17:15:00.950Z,99829.43
2022-08-20T17:17:38.235Z,99831.42
2022-08-20T17:20:20.845Z,99824.39
2022-08-20T17:23:09.331Z,99833.89
2022-08-20T17:25:42.428Z,99838.64
2022-08-20T17:28:21.310Z,99831.17
2022-08-20T17:30:55.196Z,99833.51
2022-08-20T17:33:27.600Z,99840.15
2022-08-20T17:36:11.619Z,99841.09
2022-08-20T17:38:49.937Z,99835.05
2022-08-20T17:41:30.085Z,99838.88
2022-08-20T17:44:23.265Z,99838.20
2022-08-20T17:46:58.500Z,99841.08
2022-08-20T17:49:40.299Z,99849.88
2022-08-20T17:52:41.999Z,99849.12
2022-08-20T17:55:15.029Z,99849.38
2022-08-20T17:57:50.758Z,99837.83
2022-08-20T18:00:26.817Z,99838.77
2022-08-20T18:03:07.457Z,99847.91
2022-08-20T18:05:41.590Z,99853.13
2022-08-20T18:08:18.670Z,99852.23
2022-08-20T18:11:24.277Z,99861.46
2022-08-20T18:14:32.161Z,99862.33
2022-08-20T18:17:16.528Z,99866.79
2022-08-20T18:20:00.341Z,99871.54
2022-08-20T18:22:46.699Z,99869.73
2022-08-20T18:25:35.085Z,99872.54
2022-08-20T18:28:21.345Z,99882.31
2022-08-20T18:31:08.026Z,99884.45
2022-08-20T18:33:44.257Z,99886.92
2022-08-20T18:36:22.865Z,99887.36
2022-08-20T18:39:13.306Z,99882.80
2022-08-20T18:42:10.180Z,99890.41
2022-08-20T18:44:51.772Z,99893.80
2022-08-20T18:47:36.586Z,99889.11
2022-08-20T18:50:34.660Z,99888.94
2022-08-20T18:53:20.838Z,99895.52
2022-08-20T18:56:15.856Z,99886.70
2022-08-20T18:59:02.990Z,99878.02
2022-08-20T19:01:40.044Z,99890.69
2022-08-20T19:04:33.540Z,99901.82
2022-08-20T19:07:08.524Z,99903.43
2022-08-20T19:10:34.876Z,99900.36
2022-08-20T19:13:07.159Z,99903.36
2022-08-20T19:15:51.646Z,99900.77
2022-08-20T19:18:29.478Z,99896.71
2022-08-20T19:21:05.134Z,99896.70
2022-08-20T19:23:56.054Z,99893.93
2022-08-20T19:26:32.570Z,99892.18
2022-08-20T19:29:15.065Z,99886.15
2022-08-20T19:31:49.406Z,99890.65
2022-08-20T19:34:26.776Z,99891.08
2022-08-20T19:37:35.203Z,99893.38
2022-08-20T19:40:22.277Z,99897.77
2022-08-20T19:42:59.758Z,99879.30
2022-08-20T19:45:46.210Z,99880.86
2022-08-20T19:48:38.548Z,99889.45
2022-08-20T19:51:32.523Z,99897.81
2022-08-20T19:54:07.369Z,99898.86
2022-08-20T19:56:44.389Z,99905.92
2022-08-20T19:59:26.468Z,99899.74
2022-08-20T20:02:03.825Z,99901.71
2022-08-20T20:04:57.847Z,99896.17
2022-08-20T20:07:55.489Z,99901.14
2022-08-20T20:10:38.521Z,99900.52
2022-08-20T20:13:14.799Z,99890.84
2022-08-20T20:15:47.670Z,99887.64
2022-08-20T20:18:21.341Z,99885.27
2022-08-20T20:20:58.295Z,99890.58
2022-08-20T20:23:38.608Z,99889.20
2022-08-20T20:26:24.050Z,99887.66
2022-08-20T20:29:08.740Z,99877.70
2022-08-20T20:31:59.455Z,99872.92
2022-08-20T20:34:55.399Z,99878.72
2022-08-20T20:37:48.954Z,99882.29
2022-08-20T20:40:48.390Z,99882.98
2022-08-20T20:43:35.763Z,99881.59
2022-08-20T20:46:21.174Z,99875.61
2022-08-20T20:49:20.948Z,99872.31
2022-08-20T20:52:15.270Z,99866.63
2022-08-20T20:54:51.116Z,99871.12
2022-08-20T20:57:38.248Z,99863.74
2022-08-20T21:00:26.681Z,99870.95
2022-08-20T21:03:02.570Z,99872.30
2022-08-20T21:05:41.048Z,99872.24
2022-08-20T21:08:14.744Z,99877.45
2022-08-20T21:10:49.451Z,99875.81
2022-08-20T21:13:22.522Z,99871.23
2022-08-20T21:15:55.524Z,99871.11
2022-08-20T21:18:36.243Z,99873.77
2022-08-20T21:21:11.245Z,99875.69
2022-08-20T21:23:44.540Z,99867.35
2022-08-20T21:26:17.673Z,99866.88
2022-08-20T21:28:51.242Z,99864.48
2022-08-20T21:31:25.898Z,99871.96
2022-08-20T21:33:59.550Z,99872.16
2022-08-20T21:36:32.894Z,99862.85
2022-08-20T21:39:06.690Z,99862.92
2022-08-20T21:41:42.610Z,99861.76
2022-08-20T21:44:29.707Z,99861.07
2022-08-20T21:47:04.049Z,99855.38
2022-08-20T21:49:37.435Z,99847.58
2022-08-20T21:52:11.675Z,99855.70
2022-08-20T21:54:44.778Z,99858.14
2022-08-20T21:57:26.136Z,99860.10
2022-08-20T22:00:01.746Z,99859.73
2022-08-20T22:02:38.283Z,99855.55
2022-08-20T22:05:12.080Z,99857.91
2022-08-20T22:07:46.037Z,99857.27
2022-08-20T22:10:19.596Z,99846.96
2022-08-20T22:12:53.410Z,99839.88
2022-08-20T22:15:26.910Z,99842.08
2022-08-20T22:17:59.727Z,99837.89
2022-08-20T22:20:33.481Z,99840.69
2022-08-20T22:23:09.759Z,99841.66
2022-08-20T22:25:43.217Z,99840.29
2022-08-20T22:28:16.147Z,99835.48
2022-08-20T22:30:49.705Z,99827.52
2022-08-20T22:33:25.425Z,99825.71
2022-08-20T22:35:59.988Z,99831.27
2022-08-20T22:38:32.788Z,99831.70
2022-08-20T22:41:09.587Z,99842.70
2022-08-20T22:43:55.658Z,99842.86
2022-08-20T22:46:36.008Z,99838.98
2022-08-20T22:49:12.773Z,99839.44
2022-08-20T22:51:47.048Z,99838.14
2022-08-20T22:54:23.594Z,99837.18
2022-08-20T22:56:57.105Z,99840.27
2022-08-20T22:59:29.767Z,99843.79
2022-08-20T23:02:08.523Z,99836.09
2022-08-20T23:04:41.817Z,99835.58
2022-08-20T23:07:17.051Z,99842.79
2022-08-20T23:09:50.221Z,99846.14
2022-08-20T23:12:22.867Z,99845.52
2022-08-20T23:14:56.120Z,99849.61
2022-08-20T23:17:29.350Z,99852.20
2022-08-20T23:20:02.894Z,99848.34
2022-08-20T23:22:36.241Z,99850.42
2022-08-20T23:25:11.951Z,99856.84
2022-08-20T23:27:49.480Z,99854.50
2022-08-20T23:30:23.971Z,99851.42
2022-08-20T23:32:57.395Z,99847.78
2022-08-20T23:35:39.948Z,99838.45
2022-08-20T23:38:13.521Z,99840.35
2022-08-20T23:40:46.636Z,99843.79
2022-08-20T23:43:19.875Z,99843.98
2022-08-20T23:45:53.543Z,99838.04
2022-08-20T23:48:26.945Z,99836.48
2022-08-20T23:51:00.537Z,99836.27
2022-08-20T23:53:33.964Z,99837.52
2022-08-20T23:56:07.782Z,99838.73
2022-08-20T23:58:41.635Z,99839.54
